Time;durP1;ratioP1;P1;durP2;ratioP2;P2;SDS_P1;SDS_P2;PMS_P1;PMS_P2;Temp;Humidity;BMP_temperature;BMP_pressure;BME280_temperature;BME280_humidity;BME280_pressure;Samples;Min_cycle;Max_cycle;Signal;HPM_P1;HPM_P2
2021/08/04 00:01:08;;;;;;;7.03;4.83;;;14.60;97.30;;;;;;5114164;28;20763;-90
2021/08/04 00:03:34;;;;;;;6.77;4.20;;;14.70;97.30;;;;;;5114218;28;20608;-89
2021/08/04 00:05:59;;;;;;;10.23;4.73;;;14.60;97.30;;;;;;5113895;28;20301;-89
2021/08/04 00:08:27;;;;;;;10.40;5.60;;;14.60;97.30;;;;;;5114112;28;20198;-89
2021/08/04 00:10:53;;;;;;;6.70;4.47;;;14.60;97.30;;;;;;5110695;28;20182;-89
2021/08/04 00:13:18;;;;;;;10.20;4.80;;;14.60;97.30;;;;;;5114445;28;20537;-90
2021/08/04 00:15:44;;;;;;;8.50;4.60;;;14.60;97.30;;;;;;5112984;28;20229;-90
2021/08/04 00:18:09;;;;;;;6.80;4.70;;;14.60;97.30;;;;;;5092351;28;20194;-89
2021/08/04 00:20:35;;;;;;;6.37;4.27;;;14.50;97.30;;;;;;5096716;28;20178;-89
2021/08/04 00:23:01;;;;;;;5.83;4.50;;;14.40;97.30;;;;;;5095014;28;20185;-89
2021/08/04 00:25:28;;;;;;;6.50;4.30;;;14.40;97.30;;;;;;5091624;28;20193;-90
2021/08/04 00:27:53;;;;;;;10.13;4.43;;;14.40;97.30;;;;;;5105168;27;20463;-89
2021/08/04 00:30:19;;;;;;;6.70;4.90;;;14.30;97.30;;;;;;5112187;28;20498;-89
2021/08/04 00:32:47;;;;;;;11.47;5.00;;;14.40;97.30;;;;;;5094531;28;20226;-89
2021/08/04 00:35:13;;;;;;;7.73;4.90;;;14.40;97.30;;;;;;5093034;28;20174;-89
2021/08/04 00:37:38;;;;;;;8.40;4.70;;;14.40;97.30;;;;;;5092592;28;20463;-89
2021/08/04 00:40:06;;;;;;;7.90;4.90;;;14.40;97.30;;;;;;5092076;28;20175;-89
2021/08/04 00:42:31;;;;;;;12.07;5.60;;;14.40;97.30;;;;;;5092112;28;20515;-89
2021/08/04 00:44:58;;;;;;;14.67;5.80;;;14.50;97.30;;;;;;5101544;28;20963;-89
2021/08/04 00:47:24;;;;;;;8.03;4.87;;;14.50;97.30;;;;;;5102550;28;20201;-89
2021/08/04 00:49:50;;;;;;;9.13;4.73;;;14.50;97.30;;;;;;5112061;28;20415;-89
2021/08/04 00:52:15;;;;;;;11.00;5.73;;;14.50;97.30;;;;;;5111897;28;20427;-89
2021/08/04 00:54:41;;;;;;;10.10;5.00;;;14.50;97.30;;;;;;5111762;28;20726;-89
2021/08/04 00:57:06;;;;;;;7.93;5.00;;;14.50;97.30;;;;;;5115403;28;20202;-89
2021/08/04 00:59:32;;;;;;;9.87;5.53;;;14.50;97.30;;;;;;5113215;28;20427;-89
2021/08/04 01:02:18;;;;;;;10.93;5.17;;;14.50;97.30;;;;;;5114082;28;20582;-88
2021/08/04 01:05:00;;;;;;;10.63;5.43;;;14.60;97.30;;;;;;5111553;28;20189;-90
2021/08/04 01:07:31;;;;;;;10.80;5.37;;;14.60;97.30;;;;;;5100947;28;20451;-89
2021/08/04 01:10:07;;;;;;;14.17;5.30;;;14.60;97.30;;;;;;5092334;28;20420;-90
2021/08/04 01:12:54;;;;;;;7.93;4.80;;;14.60;97.30;;;;;;5092031;28;20443;-90
2021/08/04 01:15:21;;;;;;;13.40;5.70;;;14.60;97.30;;;;;;5091933;28;20444;-89
2021/08/04 01:17:50;;;;;;;10.70;5.20;;;14.60;97.30;;;;;;5101039;28;20498;-90
2021/08/04 01:20:25;;;;;;;8.83;5.30;;;14.60;97.30;;;;;;5091836;28;20426;-90
2021/08/04 01:22:56;;;;;;;10.07;5.33;;;14.60;97.30;;;;;;5091615;28;20803;-90
2021/08/04 01:25:28;;;;;;;9.47;4.77;;;14.60;97.30;;;;;;5091219;28;20428;-89
2021/08/04 01:28:16;;;;;;;10.60;5.77;;;14.60;97.30;;;;;;5089696;28;20472;-89
2021/08/04 01:30:45;;;;;;;9.53;5.20;;;14.60;97.30;;;;;;5105081;28;20455;-90
2021/08/04 01:33:13;;;;;;;8.67;5.20;;;14.60;97.30;;;;;;5110638;28;21056;-90
2021/08/04 01:35:40;;;;;;;15.30;5.60;;;14.60;97.30;;;;;;5110798;28;20499;-89
2021/08/04 01:38:08;;;;;;;12.00;5.07;;;14.60;97.30;;;;;;5110122;28;20877;-90
2021/08/04 01:40:35;;;;;;;11.10;5.20;;;14.70;97.30;;;;;;5111078;28;20489;-90
2021/08/04 01:43:01;;;;;;;9.30;5.43;;;14.70;97.30;;;;;;5112157;28;20416;-90
2021/08/04 01:45:29;;;;;;;9.87;4.97;;;14.80;97.30;;;;;;5112919;28;20941;-89
2021/08/04 01:47:55;;;;;;;7.47;4.80;;;14.80;97.30;;;;;;5111311;28;20193;-90
2021/08/04 01:50:21;;;;;;;11.00;5.47;;;14.80;97.30;;;;;;5110837;28;20522;-90
2021/08/04 01:52:50;;;;;;;10.40;5.60;;;14.80;97.30;;;;;;5109600;28;20455;-91
2021/08/04 01:55:16;;;;;;;7.37;4.87;;;14.80;97.30;;;;;;5111991;28;20269;-90
2021/08/04 01:57:41;;;;;;;10.07;5.70;;;14.80;97.30;;;;;;5120100;28;20473;-90
2021/08/04 02:00:08;;;;;;;7.73;4.77;;;14.80;97.30;;;;;;5118676;28;20188;-91
2021/08/04 02:02:33;;;;;;;8.60;5.43;;;14.80;97.30;;;;;;5117156;28;20163;-91
2021/08/04 02:04:58;;;;;;;7.80;5.20;;;14.80;97.30;;;;;;5117928;28;20496;-91
2021/08/04 02:07:56;;;;;;;9.20;5.07;;;14.80;97.30;;;;;;5101264;28;20198;-90
2021/08/04 02:11:05;;;;;;;11.10;5.73;;;14.90;97.30;;;;;;5095309;28;20636;-89
2021/08/04 02:13:39;;;;;;;12.20;5.73;;;14.90;97.30;;;;;;5074890;28;20489;-89
2021/08/04 02:16:22;;;;;;;8.10;4.97;;;14.90;97.30;;;;;;5097417;28;20444;-90
2021/08/04 02:18:58;;;;;;;10.40;5.20;;;15.00;97.30;;;;;;5115038;28;21036;-89
2021/08/04 02:21:25;;;;;;;9.70;5.80;;;15.00;97.30;;;;;;5114552;28;20422;-89
2021/08/04 02:23:52;;;;;;;11.13;5.60;;;15.00;97.30;;;;;;5114228;28;20603;-89
2021/08/04 02:26:19;;;;;;;9.00;5.33;;;15.00;97.30;;;;;;5076054;28;1058794;-89
2021/08/04 02:28:49;;;;;;;10.80;5.30;;;15.00;97.30;;;;;;5101028;28;20185;-90
2021/08/04 02:31:16;;;;;;;9.00;5.10;;;15.00;97.30;;;;;;5098197;28;20432;-89
2021/08/04 02:33:43;;;;;;;12.53;5.57;;;15.00;97.30;;;;;;5093883;28;20440;-89
2021/08/04 02:36:09;;;;;;;9.13;5.03;;;15.00;97.30;;;;;;5093504;28;20449;-89
2021/08/04 02:38:35;;;;;;;8.57;5.00;;;15.10;97.30;;;;;;5094929;28;20521;-89
2021/08/04 02:41:02;;;;;;;9.97;5.27;;;15.10;97.30;;;;;;5093590;28;20217;-89
2021/08/04 02:43:28;;;;;;;14.60;5.40;;;15.10;97.30;;;;;;5094034;28;20417;-88
2021/08/04 02:45:55;;;;;;;11.27;5.70;;;15.10;97.30;;;;;;5094279;28;20423;-89
2021/08/04 02:48:21;;;;;;;8.17;4.90;;;15.10;97.30;;;;;;5094593;28;20420;-90
2021/08/04 02:50:52;;;;;;;8.23;5.60;;;15.10;97.30;;;;;;5095005;28;20858;-89
2021/08/04 02:53:18;;;;;;;8.97;5.53;;;15.10;97.30;;;;;;5095653;28;20416;-88
2021/08/04 02:55:44;;;;;;;8.93;5.60;;;15.10;97.30;;;;;;5100339;28;20437;-89
2021/08/04 02:58:12;;;;;;;10.10;4.80;;;15.10;97.30;;;;;;5095457;28;20467;-89
2021/08/04 03:00:38;;;;;;;9.13;4.80;;;15.10;97.30;;;;;;5094131;28;20175;-89
2021/08/04 03:03:04;;;;;;;8.70;4.90;;;15.10;97.30;;;;;;5093072;28;20423;-88
2021/08/04 03:05:29;;;;;;;9.13;5.73;;;15.10;97.30;;;;;;5093496;28;20412;-89
2021/08/04 03:07:55;;;;;;;9.80;5.00;;;15.10;97.30;;;;;;5092806;28;20194;-90
2021/08/04 03:10:21;;;;;;;8.07;5.07;;;15.10;97.30;;;;;;5092683;28;20175;-89
2021/08/04 03:12:46;;;;;;;10.27;5.53;;;15.10;97.30;;;;;;5093524;28;20210;-89
2021/08/04 03:15:12;;;;;;;8.80;5.30;;;15.00;97.30;;;;;;5093406;28;20174;-89
2021/08/04 03:17:38;;;;;;;7.27;4.57;;;15.00;97.30;;;;;;5095850;28;20702;-90
2021/08/04 03:20:04;;;;;;;12.77;6.00;;;15.00;97.30;;;;;;5093161;28;20209;-89
2021/08/04 03:22:29;;;;;;;9.07;5.30;;;15.00;97.30;;;;;;5094592;28;20182;-89
2021/08/04 03:24:55;;;;;;;10.03;5.60;;;15.00;97.30;;;;;;5094125;28;20512;-88
2021/08/04 03:27:21;;;;;;;11.23;6.00;;;15.00;97.30;;;;;;5094385;28;20708;-89
2021/08/04 03:29:46;;;;;;;10.20;5.60;;;15.00;97.30;;;;;;5094110;28;20175;-89
2021/08/04 03:32:12;;;;;;;13.93;6.70;;;15.10;97.30;;;;;;5093153;28;20182;-89
2021/08/04 03:37:05;;;;;;;11.27;5.60;;;15.10;97.30;;;;;;5084582;28;20704;-80
2021/08/04 03:39:31;;;;;;;10.60;5.93;;;15.10;97.30;;;;;;5088380;28;20472;-80
2021/08/04 03:41:56;;;;;;;10.50;5.50;;;15.10;97.30;;;;;;5072995;28;20265;-80
2021/08/04 03:44:22;;;;;;;9.30;6.00;;;15.10;97.30;;;;;;5063102;28;20534;-80
2021/08/04 03:46:47;;;;;;;11.20;6.07;;;15.10;97.30;;;;;;5071108;28;20171;-80
2021/08/04 03:49:14;;;;;;;11.13;5.80;;;15.20;97.30;;;;;;5053053;28;20653;-80
2021/08/04 03:51:40;;;;;;;7.80;5.20;;;15.10;97.30;;;;;;5052684;28;20179;-81
2021/08/04 03:54:05;;;;;;;12.30;5.60;;;15.10;97.30;;;;;;5071041;28;20448;-80
2021/08/04 03:56:31;;;;;;;9.13;5.20;;;15.10;97.30;;;;;;5052474;28;20182;-81
2021/08/04 03:58:56;;;;;;;7.97;5.30;;;15.10;97.30;;;;;;5042311;28;20271;-81
2021/08/04 04:01:22;;;;;;;10.40;5.80;;;15.10;97.30;;;;;;5066023;28;20172;-80
2021/08/04 04:03:47;;;;;;;10.50;5.87;;;15.00;97.30;;;;;;5053708;28;20199;-80
2021/08/04 04:06:13;;;;;;;13.07;5.90;;;15.10;97.30;;;;;;5047990;28;20203;-81
2021/08/04 04:08:38;;;;;;;9.60;5.50;;;15.10;97.30;;;;;;5043034;28;20175;-80
2021/08/04 04:11:05;;;;;;;11.23;5.60;;;15.10;97.30;;;;;;5051814;28;20171;-81
2021/08/04 04:13:31;;;;;;;17.83;6.63;;;15.10;97.30;;;;;;5052604;28;20202;-84
2021/08/04 04:15:57;;;;;;;10.37;5.47;;;15.20;97.30;;;;;;5048126;28;20501;-82
2021/08/04 04:18:22;;;;;;;8.53;5.60;;;15.20;97.30;;;;;;5054133;28;20473;-81
2021/08/04 04:20:48;;;;;;;11.00;5.93;;;15.20;97.30;;;;;;5046770;28;20183;-81
2021/08/04 04:23:13;;;;;;;14.10;6.20;;;15.30;97.30;;;;;;5049817;28;20263;-81
2021/08/04 04:25:39;;;;;;;11.80;6.23;;;15.20;97.30;;;;;;5055498;28;20266;-81
2021/08/04 04:28:04;;;;;;;12.10;6.37;;;15.30;97.30;;;;;;5061362;28;20174;-81
2021/08/04 04:30:30;;;;;;;13.07;5.60;;;15.20;97.30;;;;;;5079179;28;20210;-80
2021/08/04 04:32:55;;;;;;;10.40;6.47;;;15.20;97.30;;;;;;5061186;28;20179;-81
2021/08/04 04:35:21;;;;;;;13.37;6.10;;;15.30;97.30;;;;;;5079140;28;20245;-81
2021/08/04 04:37:46;;;;;;;10.70;5.60;;;15.30;97.30;;;;;;5079633;28;20174;-81
2021/08/04 04:40:12;;;;;;;9.47;6.33;;;15.30;97.30;;;;;;5060467;28;20295;-81
2021/08/04 04:42:38;;;;;;;9.67;5.77;;;15.30;97.30;;;;;;5063448;28;20273;-80
2021/08/04 04:45:04;;;;;;;9.67;5.00;;;15.30;97.30;;;;;;5058315;28;20245;-82
2021/08/04 04:47:29;;;;;;;9.13;5.63;;;15.30;97.30;;;;;;5056074;28;20186;-82
2021/08/04 04:49:55;;;;;;;10.90;5.80;;;15.30;97.30;;;;;;5057577;28;20429;-81
2021/08/04 04:52:20;;;;;;;10.03;5.67;;;15.30;97.30;;;;;;5055700;28;20183;-82
2021/08/04 04:54:46;;;;;;;12.27;6.23;;;15.30;97.30;;;;;;5053256;28;20207;-81
2021/08/04 04:57:12;;;;;;;11.03;7.10;;;15.30;97.30;;;;;;5072967;28;20189;-80
2021/08/04 04:59:37;;;;;;;11.93;6.40;;;15.40;97.30;;;;;;5052625;28;20215;-80
2021/08/04 05:02:03;;;;;;;10.40;6.30;;;15.50;97.30;;;;;;5049053;28;20405;-81
2021/08/04 05:04:28;;;;;;;11.70;5.83;;;15.50;97.30;;;;;;5053639;28;20252;-81
2021/08/04 05:06:54;;;;;;;12.20;6.07;;;15.50;97.30;;;;;;5048496;28;20669;-81
2021/08/04 05:09:22;;;;;;;15.33;6.37;;;15.50;97.30;;;;;;5051027;28;20194;-81
2021/08/04 05:11:48;;;;;;;12.90;6.27;;;15.60;97.30;;;;;;5048261;28;20179;-81
2021/08/04 05:14:13;;;;;;;9.90;6.07;;;15.60;97.30;;;;;;5067896;28;20444;-81
2021/08/04 05:16:39;;;;;;;11.87;5.80;;;15.60;97.30;;;;;;5077596;28;20620;-80
2021/08/04 05:19:04;;;;;;;13.20;6.70;;;15.70;97.30;;;;;;5062066;28;20269;-80
2021/08/04 05:21:30;;;;;;;11.57;6.13;;;15.70;97.30;;;;;;5061698;28;20194;-82
2021/08/04 05:23:55;;;;;;;14.23;6.80;;;15.80;97.30;;;;;;5062187;28;20245;-81
2021/08/04 05:26:23;;;;;;;11.53;5.90;;;15.80;97.30;;;;;;5063202;28;20227;-81
2021/08/04 05:28:50;;;;;;;12.47;6.20;;;15.90;97.30;;;;;;5082583;28;20171;-81
2021/08/04 05:31:16;;;;;;;11.93;6.43;;;15.90;97.30;;;;;;5065376;28;20856;-81
2021/08/04 05:33:41;;;;;;;11.30;6.10;;;16.00;97.30;;;;;;5065351;28;20444;-81
2021/08/04 05:36:07;;;;;;;10.80;6.43;;;16.00;97.30;;;;;;5065614;28;20460;-83
2021/08/04 05:38:33;;;;;;;10.73;6.17;;;16.00;97.30;;;;;;5064605;28;20203;-81
2021/08/04 05:40:58;;;;;;;13.70;6.40;;;16.10;97.30;;;;;;5084134;28;20796;-81
2021/08/04 05:43:24;;;;;;;12.27;6.37;;;16.10;97.30;;;;;;5065258;28;20172;-80
2021/08/04 05:45:49;;;;;;;10.83;6.50;;;16.20;97.30;;;;;;5066006;28;20179;-82
2021/08/04 05:48:15;;;;;;;10.70;6.47;;;16.20;97.30;;;;;;5084302;28;20205;-81
2021/08/04 05:50:40;;;;;;;14.87;7.13;;;16.20;97.30;;;;;;5083265;28;20183;-81
2021/08/04 05:53:06;;;;;;;13.80;6.43;;;16.30;97.30;;;;;;5062019;28;20183;-81
2021/08/04 05:55:33;;;;;;;12.53;6.33;;;16.30;97.30;;;;;;5058904;28;20319;-81
2021/08/04 05:57:59;;;;;;;16.60;7.67;;;16.40;97.30;;;;;;5058039;28;20171;-80
2021/08/04 06:00:24;;;;;;;25.60;8.37;;;16.40;97.30;;;;;;5061373;28;20413;-82
2021/08/04 06:02:50;;;;;;;9.20;6.10;;;16.50;97.30;;;;;;5082000;28;20190;-81
2021/08/04 06:05:15;;;;;;;10.50;6.30;;;16.50;97.30;;;;;;5063341;28;20191;-81
2021/08/04 06:07:41;;;;;;;12.93;7.03;;;16.60;97.30;;;;;;5063551;28;20504;-81
2021/08/04 06:10:07;;;;;;;11.90;6.50;;;16.60;97.30;;;;;;5063405;28;20209;-81
2021/08/04 06:12:32;;;;;;;12.27;8.30;;;16.60;97.30;;;;;;5064310;28;20246;-82
2021/08/04 06:14:58;;;;;;;11.70;6.50;;;16.70;97.30;;;;;;5064588;28;20199;-83
2021/08/04 06:17:23;;;;;;;10.73;6.70;;;16.70;97.30;;;;;;5082088;28;20214;-80
2021/08/04 06:19:49;;;;;;;14.20;7.10;;;16.80;97.30;;;;;;5063910;28;20226;-81
2021/08/04 06:22:14;;;;;;;14.27;7.00;;;16.80;97.30;;;;;;5082212;28;20167;-81
2021/08/04 06:24:40;;;;;;;11.57;6.80;;;16.80;97.30;;;;;;5063668;28;20229;-81
2021/08/04 06:27:05;;;;;;;15.33;6.27;;;16.80;97.30;;;;;;5064209;28;20197;-80
2021/08/04 06:29:31;;;;;;;10.10;6.20;;;16.80;97.30;;;;;;5080991;28;20179;-81
2021/08/04 06:31:56;;;;;;;10.57;6.53;;;16.80;97.30;;;;;;5062540;28;20179;-81
2021/08/04 06:34:22;;;;;;;15.60;7.97;;;16.80;97.30;;;;;;5061695;28;20202;-81
2021/08/04 06:36:47;;;;;;;9.30;6.23;;;16.80;97.30;;;;;;5080069;28;20266;-82
2021/08/04 06:39:13;;;;;;;12.67;7.03;;;16.90;97.30;;;;;;5061552;28;20199;-82
2021/08/04 06:41:38;;;;;;;12.77;6.90;;;16.90;97.30;;;;;;5079776;28;20186;-82
2021/08/04 06:44:04;;;;;;;12.93;7.20;;;17.00;97.30;;;;;;5062701;28;20201;-82
2021/08/04 06:46:35;;;;;;;14.80;7.40;;;17.00;97.30;;;;;;5081653;28;20645;-84
2021/08/04 06:49:05;;;;;;;13.87;7.40;;;17.00;97.30;;;;;;5062642;28;20243;-82
2021/08/04 06:51:32;;;;;;;18.60;8.60;;;17.00;97.30;;;;;;5062704;28;20426;-83
2021/08/04 06:53:58;;;;;;;15.20;7.97;;;17.00;97.30;;;;;;5063005;28;20452;-82
2021/08/04 06:56:24;;;;;;;14.00;7.47;;;17.00;97.30;;;;;;5062458;28;20680;-81
2021/08/04 06:58:50;;;;;;;12.20;7.57;;;17.00;97.30;;;;;;5080461;28;20274;-82
2021/08/04 07:01:16;;;;;;;20.43;8.27;;;17.10;97.30;;;;;;5079670;28;20494;-83
2021/08/04 07:03:41;;;;;;;13.10;7.27;;;17.00;97.30;;;;;;5060918;28;20191;-82
2021/08/04 07:06:08;;;;;;;13.07;7.90;;;17.10;97.30;;;;;;5060776;28;20308;-82
2021/08/04 07:08:35;;;;;;;16.30;7.63;;;17.10;97.30;;;;;;5078944;28;20228;-82
2021/08/04 07:11:00;;;;;;;13.13;7.60;;;17.20;97.30;;;;;;5060830;28;20429;-83
2021/08/04 07:13:26;;;;;;;12.80;7.00;;;17.20;97.30;;;;;;5078536;28;20413;-82
2021/08/04 07:15:52;;;;;;;13.87;6.80;;;17.30;97.30;;;;;;5061145;28;20191;-84
2021/08/04 07:18:17;;;;;;;10.90;5.70;;;17.30;97.30;;;;;;5061657;28;20199;-83
2021/08/04 07:20:43;;;;;;;14.77;7.13;;;17.40;97.30;;;;;;5060908;28;20199;-83
2021/08/04 07:23:08;;;;;;;15.33;7.80;;;17.40;97.30;;;;;;5061789;28;20176;-84
2021/08/04 07:25:34;;;;;;;14.03;6.90;;;17.50;97.30;;;;;;5061251;28;20302;-83
2021/08/04 07:28:00;;;;;;;16.37;7.87;;;17.60;97.30;;;;;;5060261;28;20691;-83
2021/08/04 07:30:26;;;;;;;14.50;7.70;;;17.60;97.30;;;;;;5060889;28;20549;-83
2021/08/04 07:32:51;;;;;;;9.67;5.90;;;17.60;97.30;;;;;;5078734;28;20669;-82
2021/08/04 07:35:17;;;;;;;8.40;5.20;;;17.60;97.30;;;;;;5059010;28;20286;-83
2021/08/04 07:37:43;;;;;;;12.07;6.57;;;17.50;97.30;;;;;;5059179;28;20175;-83
2021/08/04 07:40:09;;;;;;;9.33;6.03;;;17.60;97.30;;;;;;5058408;28;20206;-84
2021/08/04 07:42:34;;;;;;;8.70;5.40;;;17.60;97.30;;;;;;5059210;28;20265;-84
2021/08/04 07:45:00;;;;;;;11.03;6.40;;;17.60;97.30;;;;;;5058502;28;20947;-83
2021/08/04 07:47:26;;;;;;;15.23;8.13;;;17.60;97.30;;;;;;5058677;28;20616;-82
2021/08/04 07:49:51;;;;;;;8.43;5.87;;;17.60;97.30;;;;;;5058872;28;20278;-83
2021/08/04 07:52:17;;;;;;;8.07;5.83;;;17.80;97.30;;;;;;5060103;28;20171;-83
2021/08/04 07:54:43;;;;;;;10.17;7.10;;;18.00;97.30;;;;;;5059094;28;20528;-83
2021/08/04 07:57:09;;;;;;;13.73;7.43;;;18.10;97.30;;;;;;5058469;28;20175;-85
2021/08/04 07:59:34;;;;;;;11.07;6.70;;;18.30;97.30;;;;;;5076138;28;20712;-84
2021/08/04 08:02:00;;;;;;;6.30;4.37;;;18.40;97.30;;;;;;5058054;28;20435;-83
2021/08/04 08:04:26;;;;;;;7.60;4.90;;;18.50;97.30;;;;;;5056641;28;20229;-83
2021/08/04 08:06:51;;;;;;;8.33;5.20;;;18.70;97.30;;;;;;5056616;28;20309;-84
2021/08/04 08:09:21;;;;;;;5.93;4.27;;;18.80;97.30;;;;;;5056323;28;20190;-83
2021/08/04 08:11:48;;;;;;;6.10;3.50;;;18.90;97.30;;;;;;5073745;28;20163;-83
2021/08/04 08:14:13;;;;;;;4.60;3.43;;;18.90;97.30;;;;;;5055171;28;20434;-84
2021/08/04 08:16:39;;;;;;;4.70;3.67;;;18.90;97.30;;;;;;5055475;28;20900;-83
2021/08/04 08:19:05;;;;;;;6.23;4.20;;;18.90;97.30;;;;;;5055589;28;20198;-84
2021/08/04 08:21:31;;;;;;;9.43;4.93;;;18.90;97.30;;;;;;5055436;28;20176;-84
2021/08/04 08:23:56;;;;;;;4.87;3.43;;;19.00;97.30;;;;;;5073910;28;20989;-84
2021/08/04 08:26:22;;;;;;;6.30;3.77;;;19.20;97.30;;;;;;5056181;28;20195;-84
2021/08/04 08:28:48;;;;;;;5.57;4.10;;;19.30;97.30;;;;;;5056509;28;20183;-84
2021/08/04 08:31:14;;;;;;;6.80;5.03;;;19.10;97.30;;;;;;5057078;28;20171;-83
2021/08/04 08:33:40;;;;;;;4.30;4.10;;;19.10;97.30;;;;;;5056736;28;20195;-84
2021/08/04 08:36:05;;;;;;;5.40;3.30;;;19.10;97.30;;;;;;5056341;28;20301;-83
2021/08/04 08:38:31;;;;;;;4.30;3.40;;;19.20;97.30;;;;;;5074600;28;20220;-84
2021/08/04 08:40:56;;;;;;;4.00;3.13;;;19.30;97.30;;;;;;5056880;28;20167;-83
2021/08/04 08:43:22;;;;;;;3.77;2.87;;;19.40;97.30;;;;;;5056873;28;20177;-87
2021/08/04 08:45:48;;;;;;;3.67;3.20;;;19.50;97.30;;;;;;5055423;28;20183;-83
2021/08/04 08:48:18;;;;;;;3.30;3.13;;;19.80;97.30;;;;;;5054894;28;20209;-82
2021/08/04 08:50:49;;;;;;;3.63;2.73;;;20.00;97.30;;;;;;5073507;28;20448;-83
2021/08/04 08:53:15;;;;;;;3.17;2.60;;;20.10;97.30;;;;;;5055207;28;20412;-83
2021/08/04 08:55:41;;;;;;;3.13;2.60;;;20.30;97.30;;;;;;5054852;28;20426;-83
2021/08/04 08:58:07;;;;;;;2.67;2.40;;;20.30;97.30;;;;;;5055429;28;20197;-87
2021/08/04 09:00:33;;;;;;;4.43;2.63;;;20.40;97.30;;;;;;5055362;28;20652;-88
2021/08/04 09:02:59;;;;;;;3.50;2.60;;;20.50;97.30;;;;;;5056248;28;20432;-84
2021/08/04 09:05:24;;;;;;;2.43;2.10;;;20.60;97.30;;;;;;5074596;28;20187;-83
2021/08/04 09:07:50;;;;;;;3.97;2.67;;;20.70;97.30;;;;;;5056306;28;20650;-83
2021/08/04 09:10:26;;;;;;;4.83;2.53;;;20.80;97.30;;;;;;5056905;28;20197;-83
2021/08/04 09:12:54;;;;;;;3.60;3.00;;;20.90;97.30;;;;;;5074337;28;20197;-83
2021/08/04 09:15:36;;;;;;;4.50;2.93;;;20.90;97.30;;;;;;5055012;28;20461;-83
2021/08/04 09:18:13;;;;;;;5.23;3.20;;;20.80;97.30;;;;;;5055215;28;20523;-83
2021/08/04 09:20:53;;;;;;;2.70;2.23;;;20.70;97.30;;;;;;5051557;28;20915;-84
2021/08/04 09:23:27;;;;;;;3.53;2.70;;;20.80;97.30;;;;;;5078818;28;20410;-83
2021/08/04 09:26:07;;;;;;;2.73;2.60;;;20.80;96.10;;;;;;5059018;28;20434;-83
2021/08/04 09:28:56;;;;;;;2.90;2.33;;;20.90;97.30;;;;;;5035778;28;20422;-83
2021/08/04 09:31:38;;;;;;;3.07;2.90;;;21.00;96.70;;;;;;5036673;28;20472;-80
2021/08/04 09:34:03;;;;;;;2.77;2.57;;;21.20;97.20;;;;;;5047597;28;20444;-83
2021/08/04 09:36:29;;;;;;;2.93;2.73;;;21.30;96.10;;;;;;5069543;23;21783;-84
2021/08/04 09:39:05;;;;;;;3.43;3.00;;;21.30;96.00;;;;;;5015380;28;20216;-88
2021/08/04 09:41:31;;;;;;;2.33;2.17;;;21.40;95.90;;;;;;5013462;28;20204;-85
2021/08/04 09:44:05;;;;;;;2.37;1.90;;;21.50;94.90;;;;;;5008601;28;20424;-85
2021/08/04 09:46:31;;;;;;;3.37;2.73;;;21.50;93.90;;;;;;5012237;28;20774;-85
2021/08/04 09:49:17;;;;;;;2.67;2.40;;;21.60;95.30;;;;;;5013802;28;20426;-85
2021/08/04 09:51:43;;;;;;;6.30;2.60;;;21.70;92.70;;;;;;5013414;28;20598;-85
2021/08/04 09:54:11;;;;;;;4.00;1.90;;;21.80;92.80;;;;;;5003582;28;20431;-85
2021/08/04 09:56:52;;;;;;;2.40;2.20;;;22.00;91.20;;;;;;4996689;28;20460;-85
2021/08/04 09:59:20;;;;;;;3.20;2.60;;;22.10;92.60;;;;;;4994710;28;20462;-86
2021/08/04 10:01:46;;;;;;;2.70;2.50;;;22.20;90.60;;;;;;4994270;28;20428;-85
2021/08/04 10:04:14;;;;;;;3.77;2.27;;;22.20;89.00;;;;;;4995982;28;20519;-86
2021/08/04 10:06:42;;;;;;;4.33;2.90;;;22.20;89.90;;;;;;5007738;28;20173;-85
2021/08/04 10:09:10;;;;;;;2.70;2.10;;;22.30;92.10;;;;;;4997221;28;20759;-85
2021/08/04 10:11:43;;;;;;;2.80;2.00;;;22.60;94.40;;;;;;4994030;28;21004;-85
2021/08/04 10:14:13;;;;;;;2.60;2.40;;;22.80;91.40;;;;;;4997328;28;20421;-85
2021/08/04 10:16:40;;;;;;;2.50;2.30;;;22.90;91.30;;;;;;5004329;28;20534;-85
2021/08/04 10:19:06;;;;;;;2.40;2.20;;;23.00;92.10;;;;;;5010176;28;20573;-85
2021/08/04 10:21:34;;;;;;;2.23;2.03;;;23.10;89.80;;;;;;5009628;28;20444;-85
2021/08/04 10:24:00;;;;;;;3.73;2.63;;;23.20;90.70;;;;;;4998552;28;20436;-86
2021/08/04 10:26:27;;;;;;;2.40;2.00;;;23.30;90.00;;;;;;5022141;28;20904;-85
2021/08/04 10:28:57;;;;;;;5.20;2.30;;;23.40;90.80;;;;;;5016632;28;20501;-85
2021/08/04 10:31:23;;;;;;;2.23;2.03;;;23.50;90.40;;;;;;5016863;28;20527;-85
2021/08/04 10:33:49;;;;;;;2.70;2.00;;;23.70;90.90;;;;;;5017428;28;20416;-83
2021/08/04 10:36:17;;;;;;;2.63;2.10;;;23.80;89.60;;;;;;5016149;28;20430;-85
2021/08/04 10:38:47;;;;;;;2.00;1.90;;;24.00;88.80;;;;;;5017717;28;20502;-85
2021/08/04 10:41:18;;;;;;;2.37;2.23;;;24.10;88.80;;;;;;5017151;28;21023;-85
2021/08/04 10:43:55;;;;;;;4.63;2.13;;;24.20;88.60;;;;;;5018016;28;20505;-85
2021/08/04 10:46:35;;;;;;;2.57;2.20;;;24.10;86.80;;;;;;5016187;28;20462;-85
2021/08/04 10:49:04;;;;;;;3.43;2.10;;;23.90;86.50;;;;;;5016360;28;20585;-85
2021/08/04 10:51:41;;;;;;;5.37;2.27;;;23.80;87.30;;;;;;4998566;28;20444;-85
2021/08/04 10:54:15;;;;;;;2.50;2.20;;;23.60;87.90;;;;;;4997403;28;20416;-85
2021/08/04 10:56:43;;;;;;;2.67;2.47;;;23.40;86.70;;;;;;5021731;28;21170;-85
2021/08/04 10:59:11;;;;;;;3.50;2.90;;;23.10;87.30;;;;;;5015821;28;20459;-85
2021/08/04 11:01:38;;;;;;;2.90;2.70;;;23.00;87.70;;;;;;5008384;28;20452;-85
2021/08/04 11:04:11;;;;;;;2.40;2.20;;;22.90;87.00;;;;;;4996339;28;20424;-85
2021/08/04 11:07:07;;;;;;;2.93;2.60;;;22.90;87.20;;;;;;4995888;28;20424;-85
2021/08/04 11:09:41;;;;;;;2.77;2.57;;;23.00;87.40;;;;;;5011384;28;20460;-85
2021/08/04 11:12:16;;;;;;;2.50;2.00;;;23.10;87.90;;;;;;5005561;28;20808;-85
2021/08/04 11:14:47;;;;;;;2.53;2.03;;;23.40;87.10;;;;;;5004283;28;20416;-85
2021/08/04 11:17:16;;;;;;;3.03;2.40;;;23.50;87.50;;;;;;5003346;28;20982;-85
2021/08/04 11:20:01;;;;;;;3.17;2.23;;;23.60;87.20;;;;;;5006466;28;20500;-85
2021/08/04 11:22:31;;;;;;;4.63;2.03;;;23.80;86.90;;;;;;5012606;28;21496;-85
2021/08/04 11:25:04;;;;;;;2.50;2.20;;;23.90;88.60;;;;;;5004600;28;20420;-85
2021/08/04 11:27:35;;;;;;;3.17;2.20;;;23.90;86.80;;;;;;5015991;28;20649;-85
2021/08/04 11:30:02;;;;;;;2.33;2.13;;;23.90;87.00;;;;;;5016949;28;20928;-85
2021/08/04 11:32:30;;;;;;;2.47;2.23;;;23.80;89.10;;;;;;5014815;28;20536;-85
2021/08/04 11:34:56;;;;;;;2.73;2.50;;;23.70;88.20;;;;;;5016872;28;20419;-85
2021/08/04 11:37:23;;;;;;;2.80;2.07;;;23.60;87.70;;;;;;4998033;28;20838;-85
2021/08/04 11:40:00;;;;;;;2.77;2.57;;;23.40;88.70;;;;;;4996709;28;20830;-85
2021/08/04 11:42:28;;;;;;;2.57;2.30;;;23.30;88.40;;;;;;4996611;28;20442;-85
2021/08/04 11:45:01;;;;;;;3.53;2.33;;;23.10;88.90;;;;;;4996935;28;20929;-85
2021/08/04 11:47:28;;;;;;;3.03;2.83;;;23.00;88.50;;;;;;4997313;28;20409;-85
2021/08/04 11:49:53;;;;;;;2.40;2.20;;;23.00;88.50;;;;;;5008721;28;20503;-85
2021/08/04 11:52:24;;;;;;;2.37;1.90;;;22.80;88.70;;;;;;5032488;28;20493;-85
2021/08/04 11:54:52;;;;;;;2.30;2.10;;;22.70;89.10;;;;;;5032687;28;20184;-85
2021/08/04 11:57:26;;;;;;;3.03;2.30;;;22.60;90.80;;;;;;5004724;28;20420;-85
2021/08/04 12:00:00;;;;;;;3.97;2.60;;;22.60;90.40;;;;;;5001484;28;20458;-85
2021/08/04 12:02:31;;;;;;;2.90;2.77;;;22.60;89.80;;;;;;5026792;28;20451;-85
2021/08/04 12:04:58;;;;;;;4.77;2.50;;;22.80;90.40;;;;;;5032296;28;20446;-85
2021/08/04 12:07:26;;;;;;;2.53;2.00;;;23.10;89.60;;;;;;5015961;28;20423;-85
2021/08/04 12:09:53;;;;;;;3.67;2.07;;;23.50;89.60;;;;;;5012728;28;20440;-85
2021/08/04 12:12:24;;;;;;;2.93;2.73;;;23.80;90.40;;;;;;5031774;28;20504;-85
2021/08/04 12:14:52;;;;;;;2.67;2.50;;;24.00;90.90;;;;;;5015395;28;20465;-85
2021/08/04 12:17:23;;;;;;;3.37;2.33;;;24.20;90.80;;;;;;5010263;28;20444;-85
2021/08/04 12:19:49;;;;;;;2.67;2.10;;;24.20;88.80;;;;;;5015270;28;21159;-85
2021/08/04 12:22:25;;;;;;;2.80;2.60;;;24.10;87.80;;;;;;5022631;28;20936;-85
2021/08/04 12:25:00;;;;;;;3.20;2.80;;;24.00;89.70;;;;;;5009992;28;20935;-85
2021/08/04 12:27:44;;;;;;;4.70;3.07;;;24.00;91.90;;;;;;5015572;28;20435;-85
2021/08/04 12:30:12;;;;;;;4.03;2.90;;;23.90;92.20;;;;;;5015769;28;20419;-86
2021/08/04 12:32:56;;;;;;;3.90;3.10;;;23.80;92.10;;;;;;5011358;28;20511;-86
2021/08/04 12:35:48;;;;;;;3.83;2.87;;;23.70;92.20;;;;;;5013800;28;20431;-85
2021/08/04 12:38:15;;;;;;;3.47;2.90;;;23.60;91.80;;;;;;5015672;28;20471;-86
2021/08/04 12:40:45;;;;;;;3.10;2.70;;;23.50;91.30;;;;;;5011038;28;20432;-85
2021/08/04 12:43:12;;;;;;;3.20;2.67;;;23.40;93.00;;;;;;4995824;28;20507;-85
2021/08/04 12:46:04;;;;;;;5.40;2.70;;;23.40;93.70;;;;;;5008451;28;20968;-85
2021/08/04 12:48:37;;;;;;;3.00;2.90;;;23.40;93.10;;;;;;5011238;28;20427;-85
2021/08/04 12:51:04;;;;;;;4.80;2.80;;;23.40;92.40;;;;;;5014952;28;20948;-85